Flight Track Log - Related Links

Times and Time Zones

All times are in EDT time to prevent confusion due to time zone crossing. See the N510SR flight status page for this flight to view local times or setup timezone preferences in your user account.

Time Position Orientation Groundspeed Altitude Reporting Facility
EDT Latitude Longitude Course Direction KTS MPH feet Rate Location/Type
Fri 06:04:25 PM 42.4500 -71.3167 216° Southwest 199 229 1,500  Level KA90
Fri 06:04:49 PM 42.4333 -71.3333 216° Southwest 198 228 2,100 2,690 Climbing KA90
Fri 06:06:50 PM 42.3628 -71.4425 229° Southwest 216 249 8,000 2,851 Climbing Boston Center
Fri 06:07:50 PM 42.3550 -71.5269 263° West 229 264 10,700 2,231 Climbing Boston Center
Fri 06:08:51 PM 42.3350 -71.6453 257° West 277 319 12,500 2,182 Climbing Boston Center
Fri 06:09:51 PM 42.3131 -71.7747 257° West 321 369 15,100 1,831 Climbing Boston Center
Fri 06:10:49 PM 42.2969 -71.8872 259° West 339 390 16,100 458 Climbing Boston Center
Fri 06:11:49 PM 42.2725 -72.0219 256° West 339 390 16,000 -50 Descending Boston Center
Fri 06:12:49 PM 42.2561 -72.1317 259° West 333 383 16,000  Level Boston Center
Fri 06:13:50 PM 42.2356 -72.2661 258° West 339 390 16,000  Level Boston Center
Fri 06:14:49 PM 42.2169 -72.3756 257° West 333 383 16,000  Level Boston Center
Fri 06:15:50 PM 42.1961 -72.5072 258° West 333 383 16,000  Level Boston Center
Fri 06:16:50 PM 42.1794 -72.6139 258° West 333 383 16,000  Level Boston Center
Fri 06:17:51 PM 42.1625 -72.7342 259° West 333 383 16,000  Level Boston Center
Fri 06:18:49 PM 42.1517 -72.8658 264° West 333 383 16,000  Level Boston Center
Fri 06:19:49 PM 42.1469 -72.9806 267° West 333 383 16,000  Level Boston Center
Fri 06:21:02 PM 42.1358 -73.1147 264° West 333 383 16,000  Level Boston Center
Fri 06:22:02 PM 42.1289 -73.2267 265° West 333 383 16,000 -50 Level Boston Center
Fri 06:23:03 PM 42.1172 -73.3806 264° West 333 383 15,900 -50 Descending Boston Center
Fri 06:24:01 PM 42.1097 -73.5064 265° West 338 389 15,900  Level Boston Center
Fri 06:25:26 PM 42.0981 -73.6517 264° West 338 389 15,900  Level Boston Center
Fri 06:26:27 PM 42.0858 -73.8108 264° West 330 380 15,900  Level Boston Center
Fri 06:27:27 PM 42.0781 -73.9197 265° West 330 380 15,900  Level Boston Center
Fri 06:28:27 PM 42.0658 -74.0564 263° West 330 380 15,900 51 Level Boston Center
Fri 06:29:25 PM 42.0578 -74.1850 265° West 342 394 16,000 50 Climbing Boston Center
Fri 06:30:26 PM 42.0289 -74.2847 249° West 332 382 16,000 -99 Level Boston Center
Fri 06:31:26 PM 41.9650 -74.3778 227° Southwest 315 362 15,800 -1,140 Descending Boston Center
Fri 06:32:27 PM 41.9014 -74.4289 211° Southwest 312 359 13,700 -2,100 Descending Boston Center
Fri 06:33:26 PM 41.8211 -74.4878 209° Southwest 300 345 11,600 -1,966 Descending Boston Center
Fri 06:34:26 PM 41.7561 -74.5217 201° Southwest 284 327 9,800 -1,785 Descending Boston Center
Fri 06:35:27 PM 41.6742 -74.5442 192° South 272 313 8,000 -1,339 Descending Boston Center
Fri 06:36:27 PM 41.6117 -74.5558 188° South 266 306 7,100 -450 Descending Boston Center
Fri 06:37:27 PM 41.5361 -74.5700 188° South 256 295 7,100  Level Boston Center
Fri 06:38:25 PM 41.4756 -74.5819 188° South 256 295 7,100 -305 Level Boston Center
Fri 06:40:44 PM 41.3167 -74.6333 194° South 238 274 6,100 -452 Descending New York TRACON
Fri 06:41:44 PM 41.2500 -74.6500 191° South 236 272 5,600 -1,000 Descending New York TRACON
Fri 06:42:44 PM 41.1833 -74.6667 191° South 236 272 4,100 -783 Descending New York TRACON
Fri 06:43:39 PM 41.1500 -74.6000 124° Southeast 285 328 4,100  Level New York TRACON
Fri 06:44:44 PM 41.1333 -74.5000 102° East 285 328 4,100  Level New York TRACON
Fri 06:45:45 PM 41.1000 -74.4000 114° Southeast 286 329 4,100 -500 Level New York TRACON
Fri 06:46:44 PM 41.0833 -74.3000 102° East 277 319 3,100 -500 Descending New York TRACON
Fri 06:47:45 PM 41.0667 -74.2000 102° East 277 319 3,100 -50 Level New York TRACON
Fri 06:48:45 PM 41.0500 -74.1167 105° East 229 264 3,000 -500 Descending New York TRACON
Fri 06:49:45 PM 41.0167 -74.0500 124° Southeast 174 200 2,100 -672 Descending New York TRACON
Fri 06:50:50 PM 40.9667 -74.0500 180° South 154 177 1,600 -300 Descending New York TRACON
Fri 06:51:45 PM 40.9333 -74.0500 180° South 139 160 1,500 -417 Descending New York TRACON
Fri 06:52:45 PM 40.9000 -74.0500 180° South 133 153 800 -700 Descending New York TRACON

Login

Don't have an account? Register now (free) for customized features, flight alerts, and more!